Flight Track Log - Related Links

Times and Time Zones

All times are in EDT time to prevent confusion due to time zone crossing. See the USC110 flight status page for this flight to view local times or setup timezone preferences in your user account.

Time Position Orientation Groundspeed Altitude Reporting Facility
EDT Latitude Longitude Course Direction KTS MPH feet Rate Location/Type
Sun 03:52:45 PM 33.8167 -84.5500 360° North 127 146 2,800  Level Atlanta TRACON
Sun 03:53:45 PM 33.8167 -84.5167 90° East 117 135 3,600 850 Climbing Atlanta TRACON
Sun 03:54:45 PM 33.8167 -84.4667 90° East 125 144 4,500 737 Climbing Atlanta TRACON
Sun 03:55:39 PM 33.8167 -84.4333 90° East 137 158 5,000 300 Climbing Atlanta TRACON
Sun 03:56:45 PM 33.8167 -84.3833 90° East 169 194 5,100  Climbing Atlanta TRACON
Sun 03:57:39 PM 33.8167 -84.3167 90° East 177 204 5,000 -53 Descending Atlanta TRACON
Sun 03:58:39 PM 33.8167 -84.2667 90° East 178 205 5,000  Level Atlanta TRACON
Sun 03:59:39 PM 33.8333 -84.2000 73° East 179 206 5,000  Level Atlanta TRACON
Sun 04:00:39 PM 33.8333 -84.1500 90° East 179 206 5,000  Level Atlanta TRACON
Sun 04:01:39 PM 33.8333 -84.0833 90° East 181 208 5,000 250 Level Atlanta TRACON
Sun 04:02:39 PM 33.8333 -84.0333 90° East 172 198 5,500 700 Climbing Atlanta TRACON
Sun 04:03:39 PM 33.8500 -83.9833 68° East 145 167 6,400 750 Climbing Atlanta TRACON
Sun 04:04:39 PM 33.8500 -83.9333 90° East 145 167 7,000 286 Climbing Atlanta TRACON
Sun 04:05:45 PM 33.8667 -83.8667 73° East 176 203 7,000  Level Atlanta TRACON
Sun 04:06:40 PM 33.8667 -83.8167 90° East 180 207 7,000  Level Atlanta TRACON
Sun 04:07:45 PM 33.8833 -83.7500 73° East 180 207 7,000 -50 Level Atlanta TRACON
Sun 04:08:40 PM 33.8833 -83.7000 90° East 182 209 6,900 417 Descending Atlanta TRACON
Sun 04:09:40 PM 33.9000 -83.6500 80° East 157 181 7,800 864 Climbing Atlanta TRACON
Sun 04:10:45 PM 33.9000 -83.6000 90° East 132 152 8,700 524 Climbing Atlanta TRACON
Sun 04:11:46 PM 33.9167 -83.5500 68° East 159 183 8,900 104 Climbing Atlanta TRACON
Sun 04:12:40 PM 33.9167 -83.5000 90° East 182 209 8,900  Level Atlanta TRACON
Sun 04:13:40 PM 33.9333 -83.4333 73° East 187 215 8,900  Level Atlanta TRACON
Sun 04:14:45 PM 33.9333 -83.3667 90° East 187 215 8,900  Level Atlanta TRACON
Sun 04:15:46 PM 33.9500 -83.3000 73° East 182 209 8,900  Level Atlanta TRACON
Sun 04:16:46 PM 33.9667 -83.2500 68° East 184 212 8,900 52 Level Atlanta TRACON
Sun 04:17:42 PM 33.9792 -83.1994 73° East 182 209 9,000 52 Climbing Atlanta Center
Sun 04:18:42 PM 33.9933 -83.1419 73° East 181 208 9,000  Level Atlanta Center
Sun 04:19:42 PM 34.0097 -83.0814 72° East 181 208 9,000  Level Atlanta Center
Sun 04:20:42 PM 34.0258 -83.0236 71° East 181 208 9,000  Level Atlanta Center
Sun 04:21:42 PM 34.0400 -82.9658 74° East 181 208 9,000  Level Atlanta Center
Sun 04:22:42 PM 34.0561 -82.9056 72° East 181 208 9,000  Level Atlanta Center
Sun 04:23:42 PM 34.0722 -82.8475 71° East 181 208 9,000  Level Atlanta Center
Sun 04:24:42 PM 34.0864 -82.7872 74° East 181 208 9,000  Level Atlanta Center
Sun 04:25:42 PM 34.1025 -82.7267 72° East 181 208 9,000  Level Atlanta Center
Sun 04:26:42 PM 34.1183 -82.6664 72° East 181 208 9,000  Level Atlanta Center
Sun 04:27:42 PM 34.1428 -82.6106 62° Northeast 181 208 9,000  Level Atlanta Center
Sun 04:28:42 PM 34.1736 -82.5625 52° Northeast 181 208 9,000  Level Atlanta Center
Sun 04:29:42 PM 34.2064 -82.5117 52° Northeast 181 208 9,000 -50 Level Atlanta Center
Sun 04:30:42 PM 34.2392 -82.4658 49° Northeast 176 203 8,900  Descending Atlanta Center
Sun 04:31:42 PM 34.2697 -82.4175 53° Northeast 176 203 9,000 50 Climbing Atlanta Center
Sun 04:32:42 PM 34.3006 -82.3692 52° Northeast 176 203 9,000  Level Atlanta Center
Sun 04:33:42 PM 34.3331 -82.3181 52° Northeast 181 208 9,000  Level Atlanta Center
Sun 04:34:42 PM 34.3681 -82.2672 50° Northeast 181 208 9,000 -263 Level Atlanta Center
Sun 04:36:00 PM 34.4057 -82.2096 52° Northeast  Level Estimated
Sun 04:43:00 PM 34.6078 -81.8985 52° Northeast  Level Estimated
Sun 04:44:00 PM 34.6366 -81.8539 52° Northeast  Level Estimated
Sun 04:45:00 PM 34.6654 -81.8093 52° Northeast  Level Estimated
Sun 04:45:06 PM 34.7178 -81.7267 52° Northeast 201 231 6,000  Level Atlanta Center
Sun 04:46:00 PM 34.6942 -81.7647 52° Northeast  Level Estimated
Sun 04:46:14 PM 34.7564 -81.6697 50° Northeast 205 236 5,500  Level Atlanta Center
Sun 04:47:00 PM 34.7229 -81.7200 52° Northeast  Level Estimated
Sun 04:47:15 PM 34.7697 -81.6061 76° East 208 239 5,000  Level Atlanta Center
Sun 04:48:00 PM 34.7517 -81.6753 52° Northeast  Level Estimated
Sun 04:48:16 PM 34.7725 -81.5353 87° East 194 223 4,900  Level Atlanta Center
Sun 04:49:00 PM 34.7804 -81.6306 52° Northeast  Level Estimated
Sun 04:49:23 PM 34.7900 -81.4667 73° East 188 216 4,900  Level Atlanta Center
Sun 04:50:00 PM 34.8091 -81.5859 52° Northeast  Level Estimated
Sun 04:50:18 PM 34.8033 -81.4106 74° East 189 217 4,900  Level Atlanta Center
Sun 04:51:19 PM 34.8208 -81.3542 69° East 188 216 4,900  Level Atlanta Center
Sun 04:52:20 PM 34.8361 -81.2856 75° East 189 217 4,900  Level Atlanta Center
Sun 04:53:21 PM 34.8536 -81.2267 70° East 188 216 4,900  Level Atlanta Center
Sun 04:54:22 PM 34.8708 -81.1653 71° East 187 215 4,900  Level Atlanta Center
Sun 04:55:23 PM 34.8842 -81.1042 75° East 191 220 4,900  Level Atlanta Center
Sun 04:56:25 PM 34.9014 -81.0403 72° East 190 219 4,900  Level Atlanta Center
Sun 04:57:26 PM 34.9103 -80.9767 80° East 189 217 4,900  Level Atlanta Center
Sun 04:58:27 PM 34.9147 -80.9131 85° East 188 216 4,900  Level Atlanta Center
Sun 04:59:28 PM 34.9217 -80.8519 82° East 186 214 4,900  Level Atlanta Center
Sun 05:00:29 PM 34.9281 -80.7833 84° East 189 217 4,900  Level Atlanta Center
Sun 05:01:31 PM 34.9328 -80.7197 85° East 187 215 4,900  Level Atlanta Center
Sun 05:02:32 PM 34.9394 -80.6561 83° East 185 213 4,900  Level Atlanta Center
Sun 05:03:33 PM 34.9564 -80.5972 71° East 185 213 4,900  Level Atlanta Center
Sun 05:04:34 PM 34.9950 -80.5550 42° Northeast 185 213 4,900  Level Atlanta Center
Sun 05:05:35 PM 35.0356 -80.5153 39° Northeast 186 214 4,900 -246 Level Atlanta Center
Sun 05:06:36 PM 35.0878 -80.5156 360° North 196 226 4,400 -443 Descending Atlanta Center
Sun 05:07:37 PM 35.1425 -80.5311 347° North 187 215 4,000 -246 Descending Atlanta Center
Sun 05:08:38 PM 35.1808 -80.5650 324° Northwest 176 203 3,900 -49 Descending Atlanta Center
Sun 05:09:39 PM 35.2214 -80.5964 328° Northwest 170 196 3,900  Level Atlanta Center
Sun 05:10:40 PM 35.2619 -80.6253 330° Northwest 169 194 3,900  Level Atlanta Center
Sun 05:11:41 PM 35.2739 -80.6808 285° West 162 186 3,900  Level Atlanta Center
Sun 05:12:42 PM 35.2858 -80.7414 284° West 164 189 3,900  Level Atlanta Center
Sun 05:13:43 PM 35.2978 -80.7917 286° West 163 188 3,900  Level Atlanta Center
Sun 05:14:44 PM 35.3339 -80.8208 327° Northwest 173 199 3,900  Level Atlanta Center
Sun 05:15:45 PM 35.3822 -80.8342 347° North 179 206 3,900  Level Atlanta Center
Sun 05:16:46 PM 35.4364 -80.8269 North 182 209 3,900  Level Atlanta Center
Sun 05:17:47 PM 35.4758 -80.8231 North 147 169 3,900  Level Atlanta Center
Sun 05:18:48 PM 35.4978 -80.8628 304° West 155 178 3,900  Level Atlanta Center
Sun 05:19:48 PM 35.4761 -80.9097 240° Southwest 157 181 3,900 -198 Level Atlanta Center
Sun 05:20:49 PM 35.4322 -80.9114 182° South 171 197 3,500 -492 Descending Atlanta Center
Sun 05:21:50 PM 35.3861 -80.9081 177° South 148 170 2,900 -295 Descending Atlanta Center
Sun 05:22:51 PM 35.3533 -80.9219 199° South 120 138 2,900 -259 Level Atlanta Center
Sun 05:23:46 PM 35.3203 -80.9383 202° Southwest 140 161 2,400 -639 Descending Atlanta Center
Sun 05:24:53 PM 35.2744 -80.9403 182° South 161 185 1,600 -703 Descending Atlanta Center
Sun 05:25:54 PM 35.2283 -80.9394 179° South 156 180 900 -689 Descending Atlanta Center
Sun 05:27:00 PM 35.2137 -80.9491 39° Northeast  Level Estimated

Login

Don't have an account? Register now (free) for customized features, flight alerts, and more!